Time;durP1;ratioP1;P1;durP2;ratioP2;P2;SDS_P1;SDS_P2;PMS_P1;PMS_P2;Temp;Humidity;BMP_temperature;BMP_pressure;BME280_temperature;BME280_humidity;BME280_pressure;Samples;Min_cycle;Max_cycle;Signal;HPM_P1;HPM_P2
2023/05/20 00:00:48;;;;;;;4.70;1.20;;;;;;;14.27;53.18;102731.53;7392992;19;20026;-50
2023/05/20 00:03:16;;;;;;;4.15;1.17;;;;;;;14.21;53.36;102727.44;7393116;19;20575;-51
2023/05/20 00:05:43;;;;;;;5.20;1.77;;;;;;;14.20;52.84;102725.72;7392767;19;20022;-49
2023/05/20 00:08:11;;;;;;;5.82;1.65;;;;;;;14.21;52.77;102723.91;7393841;19;20074;-48
2023/05/20 00:10:38;;;;;;;2.85;1.05;;;;;;;14.17;52.53;102728.56;7392478;19;20030;-50
2023/05/20 00:13:06;;;;;;;2.65;1.10;;;;;;;14.15;52.55;102725.97;7393481;19;20011;-51
2023/05/20 00:15:34;;;;;;;4.80;1.30;;;;;;;14.11;52.30;102731.56;7392506;19;20515;-53
2023/05/20 00:18:03;;;;;;;2.20;1.10;;;;;;;14.08;52.16;102731.72;7392857;19;20018;-50
2023/05/20 00:20:31;;;;;;;5.32;1.60;;;;;;;14.03;52.01;102731.13;7392281;19;20326;-49
2023/05/20 00:22:58;;;;;;;3.67;1.17;;;;;;;13.98;52.00;102728.75;7392463;19;20019;-51
2023/05/20 00:25:26;;;;;;;4.82;1.40;;;;;;;13.97;51.94;102732.34;7392235;19;20011;-52
2023/05/20 00:27:53;;;;;;;3.85;1.40;;;;;;;13.93;51.66;102730.81;7390676;19;20043;-50
2023/05/20 00:30:20;;;;;;;5.00;1.60;;;;;;;13.83;51.72;102729.59;7392122;19;20051;-52
2023/05/20 00:32:47;;;;;;;4.18;1.70;;;;;;;13.81;51.82;102735.03;7392588;19;20064;-51
2023/05/20 00:35:14;;;;;;;3.75;1.40;;;;;;;13.77;51.83;102733.44;7392329;19;20023;-50
2023/05/20 00:37:42;;;;;;;6.80;1.63;;;;;;;13.74;51.70;102733.66;7391288;19;20019;-53
2023/05/20 00:40:10;;;;;;;3.72;1.38;;;;;;;13.73;51.55;102734.56;7391853;19;20623;-50
2023/05/20 00:42:40;;;;;;;4.57;1.63;;;;;;;13.65;51.63;102734.13;7390989;19;20010;-52
2023/05/20 00:45:08;;;;;;;3.78;1.10;;;;;;;13.62;51.44;102736.94;7391929;19;20030;-52
2023/05/20 00:47:36;;;;;;;3.25;1.48;;;;;;;13.59;51.17;102724.69;7388841;19;20045;-52
2023/05/20 00:50:03;;;;;;;4.43;1.25;;;;;;;13.61;51.01;102729.91;7391891;19;20031;-52
2023/05/20 00:52:32;;;;;;;3.22;1.40;;;;;;;13.59;50.90;102729.16;7390796;19;20485;-49
2023/05/20 00:54:59;;;;;;;4.32;1.60;;;;;;;13.55;51.03;102727.63;7390269;19;20014;-53
2023/05/20 00:57:26;;;;;;;5.72;1.60;;;;;;;13.49;50.89;102725.28;7389816;19;20038;-51
2023/05/20 00:59:54;;;;;;;2.95;1.40;;;;;;;13.47;50.84;102717.38;7391335;19;20086;-52
2023/05/20 01:02:21;;;;;;;4.82;1.50;;;;;;;13.44;50.65;102725.53;7390287;19;20035;-51
2023/05/20 01:04:48;;;;;;;2.42;1.20;;;;;;;13.37;50.66;102729.47;7391388;19;20025;-53
2023/05/20 01:07:17;;;;;;;6.13;1.42;;;;;;;13.38;50.23;102728.50;7387786;19;20051;-53
2023/05/20 01:09:44;;;;;;;2.25;1.00;;;;;;;13.32;50.56;102724.38;7389752;19;20704;-50
2023/05/20 01:12:42;;;;;;;2.45;1.20;;;;;;;13.33;50.43;102728.75;7395086;19;20025;-53
2023/05/20 01:15:11;;;;;;;1.98;0.80;;;;;;;13.25;50.39;102725.66;7391303;19;20093;-52
2023/05/20 01:17:43;;;;;;;2.40;1.20;;;;;;;13.27;50.32;102729.06;7389797;19;20053;-52
2023/05/20 01:20:14;;;;;;;3.65;1.30;;;;;;;13.23;50.13;102727.53;7390808;19;20043;-49
2023/05/20 01:22:55;;;;;;;3.05;1.30;;;;;;;13.25;50.35;102717.66;7389483;19;20022;-50
2023/05/20 01:25:23;;;;;;;5.13;1.23;;;;;;;13.18;50.22;102721.56;7390787;19;20018;-51
2023/05/20 01:27:53;;;;;;;6.43;1.60;;;;;;;13.17;50.31;102722.50;7389905;19;20037;-50
2023/05/20 01:30:21;;;;;;;5.43;1.85;;;;;;;13.13;50.36;102724.47;7390492;19;20021;-52
2023/05/20 01:33:00;;;;;;;5.10;1.60;;;;;;;13.09;50.45;102730.91;7388912;19;20026;-49
2023/05/20 01:35:28;;;;;;;4.32;1.75;;;;;;;13.02;50.89;102721.53;7390775;19;20043;-52
2023/05/20 01:37:57;;;;;;;2.85;1.40;;;;;;;12.98;50.93;102727.09;7389345;19;20022;-49
2023/05/20 01:40:26;;;;;;;2.80;1.42;;;;;;;12.95;51.31;102725.44;7389734;19;20014;-52
2023/05/20 01:42:55;;;;;;;2.72;1.42;;;;;;;12.99;51.10;102716.34;7388976;19;20043;-50
2023/05/20 01:45:24;;;;;;;3.17;1.30;;;;;;;12.98;51.10;102719.09;7389904;19;20519;-52
2023/05/20 01:47:51;;;;;;;3.17;1.50;;;;;;;12.92;50.92;102720.28;7388676;19;20039;-52
2023/05/20 01:50:18;;;;;;;4.65;1.50;;;;;;;12.95;50.91;102713.94;7390063;19;20021;-52
2023/05/20 01:52:45;;;;;;;4.97;1.35;;;;;;;12.95;51.13;102708.63;7390829;19;20064;-52
2023/05/20 01:55:12;;;;;;;3.45;1.50;;;;;;;12.90;51.23;102715.03;7389318;19;20023;-52
2023/05/20 01:57:40;;;;;;;5.10;1.45;;;;;;;12.91;51.13;102706.13;7388300;19;20543;-50
2023/05/20 02:00:08;;;;;;;4.00;1.70;;;;;;;12.86;51.03;102705.50;7388999;19;20018;-54
2023/05/20 02:02:35;;;;;;;4.20;1.50;;;;;;;12.80;51.48;102702.28;7388923;19;20027;-50
2023/05/20 02:05:03;;;;;;;3.63;1.15;;;;;;;12.77;51.58;102708.63;7388070;19;20010;-54
2023/05/20 02:07:30;;;;;;;3.95;1.40;;;;;;;12.68;51.53;102703.78;7388380;19;20018;-53
2023/05/20 02:09:57;;;;;;;4.75;1.30;;;;;;;12.60;51.83;102701.53;7388016;19;20026;-52
2023/05/20 02:12:24;;;;;;;4.45;1.30;;;;;;;12.64;51.66;102705.75;7389836;19;20015;-52
2023/05/20 02:14:51;;;;;;;4.28;1.45;;;;;;;12.67;51.75;102702.94;7388965;19;20062;-52
2023/05/20 02:17:18;;;;;;;3.40;1.33;;;;;;;12.64;51.76;102704.88;7387443;19;20018;-53
2023/05/20 02:19:46;;;;;;;2.50;1.20;;;;;;;12.52;52.15;102705.53;7391330;19;20036;-53
2023/05/20 02:22:13;;;;;;;4.45;1.35;;;;;;;12.50;52.42;102705.56;7395930;19;20024;-54
2023/05/20 02:24:42;;;;;;;3.03;1.35;;;;;;;12.50;52.68;102710.03;7395848;19;20499;-52
2023/05/20 02:27:09;;;;;;;2.92;0.98;;;;;;;12.46;52.45;102709.31;7394052;19;20018;-53
2023/05/20 02:29:36;;;;;;;4.60;1.30;;;;;;;12.39;52.67;102710.56;7395848;19;20026;-52
2023/05/20 02:32:04;;;;;;;3.35;1.27;;;;;;;12.38;52.76;102707.06;7396731;19;20431;-53
2023/05/20 02:34:31;;;;;;;4.93;1.13;;;;;;;12.39;52.64;102711.41;7395922;19;20006;-53
2023/05/20 02:36:59;;;;;;;3.30;1.38;;;;;;;12.36;52.74;102711.59;7394824;19;20120;-52
2023/05/20 02:39:27;;;;;;;4.78;1.27;;;;;;;12.43;52.71;102710.34;7395085;19;20027;-52
2023/05/20 02:41:55;;;;;;;4.30;1.65;;;;;;;12.39;52.87;102714.09;7395427;19;20516;-51
2023/05/20 02:44:22;;;;;;;2.78;1.33;;;;;;;12.52;52.58;102716.16;7396258;19;20006;-53
2023/05/20 02:46:49;;;;;;;2.60;1.15;;;;;;;12.48;52.99;102714.56;7395285;19;20030;-54
2023/05/20 02:49:16;;;;;;;4.57;1.50;;;;;;;12.42;53.16;102718.41;7395375;19;20014;-54
2023/05/20 02:51:43;;;;;;;3.28;1.30;;;;;;;12.33;53.46;102718.88;7396000;19;20018;-54
2023/05/20 02:54:10;;;;;;;2.58;1.30;;;;;;;12.31;53.92;102716.25;7395226;19;20010;-52
2023/05/20 02:56:38;;;;;;;4.05;1.42;;;;;;;12.26;54.01;102720.09;7394170;19;20018;-52
2023/05/20 02:59:06;;;;;;;5.55;1.50;;;;;;;12.18;54.57;102723.13;7393468;19;20026;-53
2023/05/20 03:01:34;;;;;;;4.80;1.60;;;;;;;12.19;54.72;102708.91;7395720;19;20018;-52
2023/05/20 03:04:02;;;;;;;4.45;1.50;;;;;;;12.19;54.61;102715.06;7395745;19;20033;-53
2023/05/20 03:06:30;;;;;;;3.72;1.40;;;;;;;12.17;54.88;102711.66;7392254;19;20019;-49
2023/05/20 03:08:58;;;;;;;3.97;1.55;;;;;;;12.12;54.93;102718.09;7394370;19;20027;-50
2023/05/20 03:11:25;;;;;;;5.05;1.70;;;;;;;12.06;55.52;102719.28;7395191;19;20026;-51
2023/05/20 03:13:52;;;;;;;4.07;1.60;;;;;;;12.12;55.42;102723.41;7395631;19;20046;-52
2023/05/20 03:16:19;;;;;;;2.58;1.50;;;;;;;12.05;55.71;102719.31;7393649;19;20720;-53
2023/05/20 03:18:47;;;;;;;3.25;1.67;;;;;;;11.95;56.04;102719.78;7394434;19;20505;-50
2023/05/20 03:21:14;;;;;;;3.67;1.40;;;;;;;11.91;55.98;102715.56;7395168;19;20026;-49
2023/05/20 03:23:41;;;;;;;4.00;1.50;;;;;;;11.88;56.07;102707.72;7392622;19;20497;-50
2023/05/20 03:26:08;;;;;;;3.03;1.60;;;;;;;11.83;56.26;102711.50;7393464;19;20043;-53
2023/05/20 03:28:35;;;;;;;2.92;1.35;;;;;;;11.73;56.65;102710.22;7393719;19;20033;-55
2023/05/20 03:31:03;;;;;;;4.43;1.35;;;;;;;11.67;56.73;102714.00;7393900;19;20030;-55
2023/05/20 03:33:32;;;;;;;3.88;1.35;;;;;;;11.69;56.51;102709.50;7399028;19;20026;-53
2023/05/20 03:35:59;;;;;;;5.53;1.60;;;;;;;11.70;56.54;102706.75;7394186;19;20018;-55
2023/05/20 03:38:26;;;;;;;4.15;1.50;;;;;;;11.66;56.71;102714.94;7395079;19;20365;-51
2023/05/20 03:40:53;;;;;;;4.25;1.75;;;;;;;11.73;56.53;102712.88;7396009;19;20051;-54
2023/05/20 03:43:20;;;;;;;3.67;1.30;;;;;;;11.65;56.58;102716.75;7394122;19;20129;-53
2023/05/20 03:45:48;;;;;;;3.80;1.58;;;;;;;11.64;56.72;102711.53;7394740;19;20018;-56
2023/05/20 03:48:15;;;;;;;2.45;1.45;;;;;;;11.67;56.68;102716.66;7392531;19;20503;-54
2023/05/20 03:50:42;;;;;;;7.10;1.40;;;;;;;11.64;56.58;102714.19;7393544;19;20014;-53
2023/05/20 03:53:09;;;;;;;4.38;1.65;;;;;;;11.67;56.64;102720.19;7394639;19;20029;-51
2023/05/20 03:55:37;;;;;;;5.07;1.35;;;;;;;11.68;56.70;102716.63;7392637;19;20034;-51
2023/05/20 03:58:04;;;;;;;3.47;1.20;;;;;;;11.65;56.79;102715.91;7392238;19;20483;-52
2023/05/20 04:00:31;;;;;;;6.65;1.60;;;;;;;11.63;56.69;102720.41;7393029;19;20026;-53
2023/05/20 04:02:59;;;;;;;4.20;1.40;;;;;;;11.63;56.87;102718.59;7392989;19;20015;-51
2023/05/20 04:05:26;;;;;;;4.30;1.50;;;;;;;11.67;56.81;102714.00;7393066;19;20035;-49
2023/05/20 04:07:53;;;;;;;3.80;1.50;;;;;;;11.65;56.92;102718.53;7391670;19;20015;-50
2023/05/20 04:10:20;;;;;;;2.38;1.35;;;;;;;11.59;57.05;102711.72;7392114;19;20035;-52
2023/05/20 04:12:48;;;;;;;3.38;1.50;;;;;;;11.65;56.73;102718.53;7393931;19;20034;-49
2023/05/20 04:15:16;;;;;;;3.47;1.50;;;;;;;11.62;56.91;102724.00;7392424;19;20389;-53
2023/05/20 04:17:47;;;;;;;3.95;1.40;;;;;;;11.64;56.78;102719.50;7391692;19;20021;-53
2023/05/20 04:20:14;;;;;;;4.13;1.40;;;;;;;11.61;56.92;102723.13;7391987;19;20495;-52
2023/05/20 04:22:41;;;;;;;3.80;1.45;;;;;;;11.68;56.75;102721.91;7391733;19;20131;-52
2023/05/20 04:25:09;;;;;;;5.63;1.60;;;;;;;11.64;56.97;102717.69;7390335;19;20011;-51
2023/05/20 04:27:37;;;;;;;3.22;1.45;;;;;;;11.63;57.09;102717.75;7391715;19;20018;-51
2023/05/20 04:30:05;;;;;;;4.10;1.38;;;;;;;11.65;57.18;102716.75;7391258;19;20484;-51
2023/05/20 04:32:33;;;;;;;3.45;1.58;;;;;;;11.60;57.14;102713.47;7392833;19;20018;-48
2023/05/20 04:35:07;;;;;;;3.88;1.48;;;;;;;11.65;57.11;102714.09;7392085;19;20094;-51
2023/05/20 04:37:36;;;;;;;;;;;;;;;11.58;57.37;102717.09;7391636;19;20018;-51
2023/05/20 04:40:05;;;;;;;3.42;1.30;;;;;;;11.63;57.41;102720.41;7390881;19;19950;-50
2023/05/20 04:42:32;;;;;;;2.95;1.40;;;;;;;11.74;57.25;102719.91;7388745;19;20015;-51
2023/05/20 04:45:00;;;;;;;5.25;1.40;;;;;;;11.78;56.80;102719.69;7391875;19;20035;-52
2023/05/20 04:47:28;;;;;;;4.70;1.42;;;;;;;11.83;56.75;102717.72;7390960;19;20010;-49
2023/05/20 04:49:56;;;;;;;5.05;1.40;;;;;;;11.84;56.88;102719.44;7391346;19;20022;-48
2023/05/20 04:52:23;;;;;;;3.83;1.40;;;;;;;11.80;56.98;102720.47;7391723;19;20026;-51
2023/05/20 04:54:51;;;;;;;3.75;1.42;;;;;;;11.79;57.45;102716.13;7391724;19;20088;-54
2023/05/20 04:57:19;;;;;;;4.22;1.30;;;;;;;11.85;56.74;102718.50;7388639;19;20019;-50
2023/05/20 04:59:47;;;;;;;2.92;1.25;;;;;;;11.84;56.85;102716.78;7391241;19;20019;-53
2023/05/20 05:02:14;;;;;;;4.57;1.40;;;;;;;11.85;57.13;102714.97;7391819;19;20018;-50
2023/05/20 05:04:41;;;;;;;3.42;1.50;;;;;;;11.85;57.36;102714.97;7389799;19;20019;-50
2023/05/20 05:07:08;;;;;;;3.65;1.15;;;;;;;11.86;57.16;102712.25;7390533;19;20025;-53
2023/05/20 05:09:35;;;;;;;2.72;1.30;;;;;;;11.87;57.08;102716.63;7390339;19;20025;-53
2023/05/20 05:12:02;;;;;;;2.70;1.25;;;;;;;11.93;57.22;102721.63;7391499;19;20078;-51
2023/05/20 05:14:29;;;;;;;3.15;1.13;;;;;;;11.96;57.22;102720.66;7390829;19;20027;-52
2023/05/20 05:16:56;;;;;;;3.33;1.20;;;;;;;12.00;57.54;102729.31;7390023;19;20469;-52
2023/05/20 05:19:24;;;;;;;3.13;1.42;;;;;;;11.97;57.82;102726.81;7388860;19;20023;-49
2023/05/20 05:21:51;;;;;;;2.63;1.33;;;;;;;12.04;57.64;102726.44;7390902;19;20508;-53
2023/05/20 05:24:18;;;;;;;2.67;1.20;;;;;;;12.07;57.45;102726.31;7389301;19;20106;-52
2023/05/20 05:26:45;;;;;;;3.80;1.30;;;;;;;12.14;57.45;102724.22;7389725;19;20026;-51
2023/05/20 05:29:12;;;;;;;3.45;1.15;;;;;;;12.14;57.78;102727.72;7389883;19;20019;-53
2023/05/20 05:31:39;;;;;;;3.97;1.50;;;;;;;12.21;57.75;102722.97;7390379;19;20502;-48
2023/05/20 05:34:06;;;;;;;4.40;1.63;;;;;;;12.30;57.46;102726.97;7390634;19;20667;-50
2023/05/20 05:36:34;;;;;;;4.03;1.10;;;;;;;12.30;57.52;102719.88;7387953;19;20026;-53
2023/05/20 05:39:01;;;;;;;5.82;1.70;;;;;;;12.38;57.54;102723.00;7389532;19;20026;-52
2023/05/20 05:41:28;;;;;;;6.05;1.45;;;;;;;12.47;57.46;102718.16;7388595;19;20475;-50
2023/05/20 05:43:55;;;;;;;3.63;1.33;;;;;;;12.54;57.74;102720.44;7389690;19;20353;-50
2023/05/20 05:46:22;;;;;;;4.45;1.45;;;;;;;12.67;57.49;102720.69;7389596;19;20083;-51
2023/05/20 05:48:49;;;;;;;3.67;1.50;;;;;;;12.73;57.44;102720.34;7389883;19;20507;-49
2023/05/20 05:51:16;;;;;;;4.25;1.25;;;;;;;12.80;56.95;102721.75;7390279;19;20014;-53
2023/05/20 05:53:44;;;;;;;5.45;1.40;;;;;;;12.84;57.20;102712.69;7390103;19;20014;-51
2023/05/20 05:56:11;;;;;;;3.10;1.45;;;;;;;12.87;56.56;102712.53;7396520;19;20014;-52
2023/05/20 05:58:38;;;;;;;4.20;1.52;;;;;;;13.00;56.27;102723.38;7395666;19;20042;-52
2023/05/20 06:01:05;;;;;;;3.42;1.27;;;;;;;13.07;56.08;102714.16;7397951;19;20508;-50
2023/05/20 06:03:32;;;;;;;3.35;1.40;;;;;;;13.10;55.93;102707.81;7396151;19;20555;-52
2023/05/20 06:06:00;;;;;;;4.38;1.23;;;;;;;13.17;56.03;102709.22;7395872;19;20026;-50
2023/05/20 06:08:27;;;;;;;4.25;1.30;;;;;;;13.25;55.55;102711.50;7396382;19;20015;-49
2023/05/20 06:10:54;;;;;;;3.97;1.40;;;;;;;13.32;55.10;102708.44;7391343;19;20419;-52
2023/05/20 06:13:21;;;;;;;3.38;1.33;;;;;;;13.37;55.30;102698.38;7397373;19;20015;-50
2023/05/20 06:15:49;;;;;;;4.90;1.50;;;;;;;13.40;54.95;102700.88;7396449;19;20018;-54
2023/05/20 06:18:17;;;;;;;4.63;1.60;;;;;;;13.43;54.95;102706.97;7396654;19;20098;-49
2023/05/20 06:20:44;;;;;;;3.00;1.50;;;;;;;13.48;55.24;102710.25;7396273;19;20018;-53
2023/05/20 06:23:11;;;;;;;4.78;1.40;;;;;;;13.48;55.17;102707.59;7393601;19;20015;-52
2023/05/20 06:25:38;;;;;;;4.43;1.25;;;;;;;13.47;55.18;102721.81;7395621;19;20034;-53
2023/05/20 06:28:07;;;;;;;6.45;1.70;;;;;;;13.50;55.38;102711.88;7395044;19;20206;-51
2023/05/20 06:30:34;;;;;;;3.35;1.50;;;;;;;13.51;55.42;102713.59;7395888;19;20487;-47
2023/05/20 06:33:01;;;;;;;2.65;1.40;;;;;;;13.52;55.02;102706.47;7394746;19;20042;-50
2023/05/20 06:35:28;;;;;;;2.90;1.50;;;;;;;13.47;55.24;102704.06;7396063;19;20486;-51
2023/05/20 06:37:56;;;;;;;5.13;1.52;;;;;;;13.48;55.57;102704.94;7393440;19;20062;-53
2023/05/20 06:40:23;;;;;;;3.53;1.40;;;;;;;13.51;55.80;102697.63;7395120;19;20015;-54
2023/05/20 06:42:50;;;;;;;4.45;1.50;;;;;;;13.58;55.85;102704.34;7395535;19;20033;-52
2023/05/20 06:45:17;;;;;;;5.45;1.90;;;;;;;13.67;56.12;102704.78;7394901;19;20010;-49
2023/05/20 06:47:46;;;;;;;3.28;1.45;;;;;;;13.77;55.68;102705.97;7393230;19;20015;-51
2023/05/20 06:50:13;;;;;;;4.55;1.58;;;;;;;13.80;55.60;102703.13;7395433;19;20019;-51
2023/05/20 06:52:41;;;;;;;3.67;1.67;;;;;;;13.80;55.40;102697.81;7395736;19;20014;-49
2023/05/20 06:55:08;;;;;;;4.03;1.60;;;;;;;13.78;55.57;102699.72;7394191;19;20487;-48
2023/05/20 06:57:35;;;;;;;5.82;1.70;;;;;;;13.76;55.63;102693.59;7393719;19;20059;-52
2023/05/20 07:00:04;;;;;;;4.80;1.65;;;;;;;13.83;55.54;102693.16;7393959;19;20130;-50
2023/05/20 07:02:32;;;;;;;3.40;1.70;;;;;;;13.87;55.72;102689.38;7395810;19;20133;-49
2023/05/20 07:04:59;;;;;;;3.30;1.40;;;;;;;13.89;55.67;102686.66;7392155;19;20556;-50
2023/05/20 07:07:27;;;;;;;4.75;1.67;;;;;;;13.95;56.00;102688.09;7393383;19;20019;-53
2023/05/20 07:09:54;;;;;;;6.32;1.75;;;;;;;14.04;55.99;102687.56;7394044;19;20078;-49
2023/05/20 07:12:21;;;;;;;4.32;1.80;;;;;;;13.99;55.75;102685.16;7394669;19;20022;-52
2023/05/20 07:14:49;;;;;;;4.10;1.60;;;;;;;13.94;55.99;102679.25;7394504;19;20014;-54
2023/05/20 07:17:16;;;;;;;4.80;1.70;;;;;;;14.07;56.24;102684.72;7392979;19;20027;-53
2023/05/20 07:19:43;;;;;;;6.05;1.70;;;;;;;14.13;56.40;102684.38;7393307;19;20121;-53
2023/05/20 07:22:10;;;;;;;3.53;1.67;;;;;;;14.17;56.43;102674.41;7394024;19;20047;-55
2023/05/20 07:24:38;;;;;;;5.22;1.67;;;;;;;14.23;56.51;102671.38;7391993;19;20022;-54
2023/05/20 07:27:05;;;;;;;5.47;1.65;;;;;;;14.30;56.42;102675.41;7391321;19;20349;-52
2023/05/20 07:29:32;;;;;;;5.85;2.00;;;;;;;14.31;56.56;102672.66;7394239;19;20034;-53
2023/05/20 07:31:59;;;;;;;4.30;1.70;;;;;;;14.37;56.48;102668.75;7392693;19;20387;-52
2023/05/20 07:34:26;;;;;;;6.95;1.98;;;;;;;14.44;56.54;102662.13;7394419;19;20494;-53
2023/05/20 07:36:53;;;;;;;4.78;2.10;;;;;;;14.53;56.28;102668.75;7392445;19;20015;-53
2023/05/20 07:39:20;;;;;;;5.28;1.80;;;;;;;14.60;56.41;102660.28;7392891;19;20018;-52
2023/05/20 07:41:47;;;;;;;6.40;2.00;;;;;;;14.66;56.32;102652.88;7393779;19;20035;-51
2023/05/20 07:44:14;;;;;;;4.55;1.80;;;;;;;14.72;56.08;102657.81;7393018;19;20063;-50
2023/05/20 07:46:42;;;;;;;4.57;2.00;;;;;;;14.81;56.36;102644.81;7392336;19;20085;-52
2023/05/20 07:49:09;;;;;;;3.83;1.90;;;;;;;14.88;56.43;102645.25;7391871;19;20018;-51
2023/05/20 07:51:36;;;;;;;6.30;2.13;;;;;;;14.95;56.23;102645.75;7391298;19;20483;-53
2023/05/20 07:54:03;;;;;;;5.57;2.10;;;;;;;15.03;56.06;102643.47;7393789;19;20026;-52
2023/05/20 07:56:30;;;;;;;5.00;2.20;;;;;;;15.13;55.83;102646.44;7391520;19;20022;-55
2023/05/20 07:58:59;;;;;;;9.98;2.30;;;;;;;15.23;55.73;102653.75;7392991;19;20519;-52
2023/05/20 08:01:26;;;;;;;6.47;2.25;;;;;;;15.29;55.04;102645.34;7387327;19;20025;-52
2023/05/20 08:03:54;;;;;;;6.75;2.05;;;;;;;15.32;55.37;102649.66;7392926;19;20105;-53
2023/05/20 08:06:23;;;;;;;3.42;1.95;;;;;;;15.38;54.89;102643.03;7392529;19;20546;-51
2023/05/20 08:08:50;;;;;;;6.65;2.45;;;;;;;15.46;55.00;102636.28;7391765;19;20022;-50
2023/05/20 08:11:17;;;;;;;5.72;2.00;;;;;;;15.49;55.10;102635.19;7393599;19;20014;-52
2023/05/20 08:13:44;;;;;;;3.80;2.25;;;;;;;15.52;54.91;102625.19;7392511;19;20018;-50
2023/05/20 08:16:11;;;;;;;7.72;2.28;;;;;;;15.62;54.69;102629.94;7395369;19;20022;-52
2023/05/20 08:18:39;;;;;;;6.20;2.30;;;;;;;15.77;54.06;102635.19;7392242;19;20034;-51
2023/05/20 08:21:09;;;;;;;8.23;2.28;;;;;;;15.79;53.34;102627.91;7393275;19;20093;-54
2023/05/20 08:23:36;;;;;;;5.25;2.45;;;;;;;15.81;53.32;102630.50;7391853;19;20026;-57
2023/05/20 08:26:06;;;;;;;5.35;2.13;;;;;;;15.80;53.17;102626.97;7393589;19;20025;-56
2023/05/20 08:28:35;;;;;;;5.82;2.45;;;;;;;15.87;53.06;102626.53;7392388;19;20022;-53
2023/05/20 08:31:03;;;;;;;5.53;2.40;;;;;;;15.85;52.83;102618.66;7392449;19;20018;-52
2023/05/20 08:33:30;;;;;;;5.25;1.90;;;;;;;15.91;52.79;102623.59;7390900;19;20039;-51
2023/05/20 08:35:57;;;;;;;6.18;2.30;;;;;;;15.98;53.05;102616.00;7391740;19;20022;-52
2023/05/20 08:38:24;;;;;;;6.43;2.00;;;;;;;16.04;52.79;102619.13;7391225;19;20364;-51
2023/05/20 08:40:54;;;;;;;5.07;2.10;;;;;;;16.15;52.36;102617.56;7391149;19;20365;-52
2023/05/20 08:43:21;;;;;;;6.10;2.08;;;;;;;16.22;52.25;102614.38;7391983;19;20026;-49
2023/05/20 08:45:51;;;;;;;4.25;2.05;;;;;;;16.33;51.26;102613.63;7391331;19;20048;-49
2023/05/20 08:48:21;;;;;;;8.68;2.35;;;;;;;16.35;50.51;102618.88;7392040;19;20463;-49
2023/05/20 08:50:52;;;;;;;7.72;2.13;;;;;;;16.49;49.88;102608.09;7390883;19;20014;-49
2023/05/20 08:53:21;;;;;;;5.63;2.17;;;;;;;16.50;50.26;102605.31;7391900;19;20136;-53
2023/05/20 08:55:59;;;;;;;5.05;1.95;;;;;;;16.51;50.55;102598.97;7389020;19;20015;-50
2023/05/20 08:58:28;;;;;;;4.93;2.38;;;;;;;16.55;50.57;102596.94;7389567;19;20018;-51
2023/05/20 09:00:57;;;;;;;6.22;2.13;;;;;;;16.63;50.42;102597.28;7391586;19;20018;-48
2023/05/20 09:03:25;;;;;;;7.22;2.17;;;;;;;16.78;49.85;102600.72;7391552;19;20014;-53
2023/05/20 09:05:53;;;;;;;6.97;2.38;;;;;;;16.78;49.48;102582.00;7390202;19;20018;-51
2023/05/20 09:08:27;;;;;;;4.15;2.13;;;;;;;16.77;49.24;102583.81;7390078;19;20030;-54
2023/05/20 09:10:54;;;;;;;6.55;2.25;;;;;;;16.67;49.41;102580.03;7391537;19;20015;-51
2023/05/20 09:13:23;;;;;;;4.55;2.33;;;;;;;16.65;49.67;102592.69;7391440;19;20018;-50
2023/05/20 09:15:50;;;;;;;6.75;2.38;;;;;;;16.77;48.96;102585.66;7390786;19;20021;-51
2023/05/20 09:18:17;;;;;;;10.23;2.95;;;;;;;16.76;49.10;102582.13;7392479;19;20021;-50
2023/05/20 09:20:49;;;;;;;8.75;3.28;;;;;;;16.86;49.12;102584.97;7388565;19;20415;-53
2023/05/20 09:23:18;;;;;;;7.78;2.13;;;;;;;16.86;48.67;102590.34;7390693;19;20022;-52
2023/05/20 09:25:49;;;;;;;6.05;1.85;;;;;;;16.91;48.46;102588.22;7389608;19;20019;-52
2023/05/20 09:28:23;;;;;;;8.85;2.97;;;;;;;16.95;47.98;102581.66;7390362;19;20022;-48
2023/05/20 09:30:58;;;;;;;6.38;2.70;;;;;;;16.92;48.25;102578.34;7390450;19;20088;-49
2023/05/20 09:33:30;;;;;;;4.75;1.90;;;;;;;16.82;48.62;102583.50;7391208;19;20026;-49
2023/05/20 09:36:07;;;;;;;6.53;2.22;;;;;;;16.68;49.14;102578.25;7389692;19;20090;-50
2023/05/20 09:38:38;;;;;;;6.10;2.00;;;;;;;16.60;49.36;102580.56;7390262;19;20022;-49
2023/05/20 09:41:11;;;;;;;5.95;2.33;;;;;;;16.62;49.39;102576.00;7389349;19;20015;-48
2023/05/20 09:43:39;;;;;;;7.88;1.98;;;;;;;16.57;49.19;102571.81;7388358;19;20025;-49
2023/05/20 09:46:07;;;;;;;4.80;1.90;;;;;;;16.66;48.69;102564.97;7389683;19;20046;-49
2023/05/20 09:48:36;;;;;;;5.38;1.95;;;;;;;16.71;48.55;102556.59;7387504;19;20022;-50
2023/05/20 09:51:05;;;;;;;5.78;2.05;;;;;;;16.77;47.71;102557.06;7390365;19;20019;-52
2023/05/20 09:53:33;;;;;;;6.45;2.08;;;;;;;16.90;47.75;102556.19;7389421;19;20011;-52
2023/05/20 09:56:00;;;;;;;4.63;1.98;;;;;;;17.00;48.18;102555.41;7389107;19;20879;-50
2023/05/20 09:58:28;;;;;;;6.63;2.30;;;;;;;17.09;47.62;102555.72;7389259;19;20039;-50
2023/05/20 10:00:55;;;;;;;6.10;2.25;;;;;;;17.06;47.42;102546.09;7389902;19;20529;-53
2023/05/20 10:03:26;;;;;;;5.70;1.67;;;;;;;17.12;47.10;102540.28;7389216;19;20022;-52
2023/05/20 10:06:24;;;;;;;6.15;1.90;;;;;;;17.16;46.53;102539.09;7387697;19;20029;-53
2023/05/20 10:09:04;;;;;;;4.38;1.67;;;;;;;17.25;46.59;102546.47;7386689;19;20491;-50
2023/05/20 10:11:45;;;;;;;5.32;2.00;;;;;;;17.36;46.41;102543.00;7389619;19;20018;-52
2023/05/20 10:14:31;;;;;;;6.00;2.20;;;;;;;17.46;45.99;102529.78;7389159;19;20019;-51
2023/05/20 10:17:10;;;;;;;5.88;1.67;;;;;;;17.76;44.40;102535.53;7388689;19;20081;-52
2023/05/20 10:19:38;;;;;;;6.00;1.63;;;;;;;17.89;44.74;102530.09;7388552;19;20014;-51
2023/05/20 10:22:10;;;;;;;8.32;2.25;;;;;;;18.03;44.64;102521.00;7388889;19;20032;-52
2023/05/20 10:24:42;;;;;;;7.78;2.00;;;;;;;17.99;44.59;102519.53;7388275;19;20101;-52
2023/05/20 10:27:13;;;;;;;6.07;1.92;;;;;;;17.85;45.21;102523.25;7388040;19;20019;-52
2023/05/20 10:29:45;;;;;;;9.30;2.15;;;;;;;17.76;45.88;102514.09;7388282;19;20039;-52
2023/05/20 10:32:34;;;;;;;4.32;1.55;;;;;;;17.55;46.14;102515.69;7389249;19;20021;-52
2023/05/20 10:35:08;;;;;;;4.78;1.70;;;;;;;17.40;46.38;102515.03;7388152;19;20014;-53
2023/05/20 10:37:41;;;;;;;7.05;1.90;;;;;;;17.46;46.37;102508.34;7385185;19;20022;-51
2023/05/20 10:40:17;;;;;;;5.07;1.67;;;;;;;17.59;46.90;102514.50;7389479;19;20019;-51
2023/05/20 10:42:45;;;;;;;4.22;1.33;;;;;;;17.63;46.20;102502.59;7396460;19;20090;-52
2023/05/20 10:45:24;;;;;;;6.35;1.90;;;;;;;17.90;45.61;102506.84;7393737;19;20030;-53
2023/05/20 10:47:56;;;;;;;3.58;1.50;;;;;;;17.80;45.85;102500.47;7394059;19;20025;-52
2023/05/20 10:50:34;;;;;;;5.53;1.60;;;;;;;17.86;45.47;102508.91;7393605;19;20010;-51
2023/05/20 10:53:06;;;;;;;5.05;1.50;;;;;;;17.85;45.74;102504.50;7394428;19;20097;-52
2023/05/20 10:55:53;;;;;;;4.93;1.63;;;;;;;17.75;46.09;102495.47;7395525;19;20018;-53
2023/05/20 10:58:22;;;;;;;4.28;1.83;;;;;;;17.63;45.99;102499.91;7396132;19;20026;-53
2023/05/20 11:00:53;;;;;;;3.55;1.30;;;;;;;17.52;46.04;102499.84;7395837;19;20057;-51
2023/05/20 11:03:21;;;;;;;7.50;1.77;;;;;;;17.40;46.46;102504.31;7395788;19;20030;-52
2023/05/20 11:05:50;;;;;;;3.65;1.50;;;;;;;17.50;46.92;102499.09;7392201;19;20019;-51
2023/05/20 11:08:17;;;;;;;4.10;1.25;;;;;;;17.57;46.36;102495.00;7395706;19;20025;-52
2023/05/20 11:10:55;;;;;;;4.60;1.75;;;;;;;17.54;45.38;102495.22;7396031;19;20011;-51
2023/05/20 11:13:24;;;;;;;4.30;1.67;;;;;;;17.70;45.14;102497.59;7394827;19;20036;-52
2023/05/20 11:15:52;;;;;;;4.95;1.58;;;;;;;17.78;45.21;102493.41;7394275;19;20500;-53
2023/05/20 11:18:19;;;;;;;4.07;1.63;;;;;;;17.77;45.47;102486.31;7395320;19;20056;-51
2023/05/20 11:20:46;;;;;;;2.05;1.30;;;;;;;17.83;45.29;102486.84;7395830;19;20034;-52
2023/05/20 11:23:14;;;;;;;3.75;1.52;;;;;;;17.85;45.79;102479.53;7393743;19;20046;-52
2023/05/20 11:25:41;;;;;;;6.18;1.58;;;;;;;17.80;45.86;102484.38;7392134;19;20015;-53
2023/05/20 11:28:12;;;;;;;3.45;1.20;;;;;;;17.86;46.27;102486.59;7394479;19;20018;-53
2023/05/20 11:30:42;;;;;;;5.72;1.50;;;;;;;17.98;45.96;102474.94;7393983;19;20025;-51